sensor_id;sensor_type;location;lat;lon;timestamp;pressure;altitude;pressure_sealevel;temperature;humidity
76164;BME280;64897;50.816;4.422;2023-04-24T00:01:07;99372.69;;;9.34;85.54
76164;BME280;64897;50.816;4.422;2023-04-24T00:03:54;99368.56;;;9.31;86.00
76164;BME280;64897;50.816;4.422;2023-04-24T00:06:41;99370.78;;;9.36;86.43
76164;BME280;64897;50.816;4.422;2023-04-24T00:09:28;99372.59;;;9.35;86.22
76164;BME280;64897;50.816;4.422;2023-04-24T00:12:16;99377.84;;;9.24;86.67
76164;BME280;64897;50.816;4.422;2023-04-24T00:15:04;99384.97;;;9.22;87.67
76164;BME280;64897;50.816;4.422;2023-04-24T00:17:52;99380.28;;;9.16;88.10
76164;BME280;64897;50.816;4.422;2023-04-24T00:20:39;99388.56;;;9.21;87.76
76164;BME280;64897;50.816;4.422;2023-04-24T00:23:26;99388.09;;;9.16;88.50
76164;BME280;64897;50.816;4.422;2023-04-24T00:26:13;99389.06;;;9.15;89.05
76164;BME280;64897;50.816;4.422;2023-04-24T00:29:02;99394.28;;;9.15;88.19
76164;BME280;64897;50.816;4.422;2023-04-24T00:31:49;99397.25;;;9.10;89.04
76164;BME280;64897;50.816;4.422;2023-04-24T00:34:36;99397.00;;;9.13;88.52
76164;BME280;64897;50.816;4.422;2023-04-24T00:37:24;99390.09;;;9.03;88.79
76164;BME280;64897;50.816;4.422;2023-04-24T00:40:11;99398.91;;;9.11;89.28
76164;BME280;64897;50.816;4.422;2023-04-24T00:42:58;99390.16;;;9.12;88.53
76164;BME280;64897;50.816;4.422;2023-04-24T00:45:47;99397.59;;;9.17;87.21
76164;BME280;64897;50.816;4.422;2023-04-24T00:48:35;99391.44;;;9.18;88.07
76164;BME280;64897;50.816;4.422;2023-04-24T00:51:21;99393.88;;;9.20;88.59
76164;BME280;64897;50.816;4.422;2023-04-24T00:54:10;99392.94;;;9.21;87.27
76164;BME280;64897;50.816;4.422;2023-04-24T00:56:57;99394.53;;;9.12;88.17
76164;BME280;64897;50.816;4.422;2023-04-24T00:59:44;99390.72;;;9.16;87.01
76164;BME280;64897;50.816;4.422;2023-04-24T01:02:33;99399.56;;;9.04;88.55
76164;BME280;64897;50.816;4.422;2023-04-24T01:05:20;99404.78;;;9.04;88.58
76164;BME280;64897;50.816;4.422;2023-04-24T01:08:07;99405.47;;;9.06;88.94
76164;BME280;64897;50.816;4.422;2023-04-24T01:10:55;99395.31;;;9.03;88.79
76164;BME280;64897;50.816;4.422;2023-04-24T01:13:43;99392.81;;;9.01;89.47
76164;BME280;64897;50.816;4.422;2023-04-24T01:16:31;99397.91;;;9.03;90.12
76164;BME280;64897;50.816;4.422;2023-04-24T01:19:22;99388.38;;;8.92;91.00
76164;BME280;64897;50.816;4.422;2023-04-24T01:22:11;99386.84;;;8.90;91.31
76164;BME280;64897;50.816;4.422;2023-04-24T01:25:00;99392.56;;;8.84;92.40
76164;BME280;64897;50.816;4.422;2023-04-24T01:27:49;99384.19;;;8.80;91.42
76164;BME280;64897;50.816;4.422;2023-04-24T01:30:36;99398.53;;;8.75;92.16
76164;BME280;64897;50.816;4.422;2023-04-24T01:33:23;99390.47;;;8.78;92.27
76164;BME280;64897;50.816;4.422;2023-04-24T01:36:11;99393.00;;;8.68;93.27
76164;BME280;64897;50.816;4.422;2023-04-24T01:39:00;99396.75;;;8.75;92.41
76164;BME280;64897;50.816;4.422;2023-04-24T01:41:47;99390.59;;;8.76;91.98
76164;BME280;64897;50.816;4.422;2023-04-24T01:44:40;99392.25;;;8.77;91.52
76164;BME280;64897;50.816;4.422;2023-04-24T01:47:29;99403.03;;;8.73;92.71
76164;BME280;64897;50.816;4.422;2023-04-24T01:50:17;99402.22;;;8.72;93.52
76164;BME280;64897;50.816;4.422;2023-04-24T01:53:04;99396.44;;;8.69;93.16
76164;BME280;64897;50.816;4.422;2023-04-24T01:55:53;99397.50;;;8.66;93.88
76164;BME280;64897;50.816;4.422;2023-04-24T01:58:40;99396.69;;;8.66;93.87
76164;BME280;64897;50.816;4.422;2023-04-24T02:01:31;99394.97;;;8.76;93.71
76164;BME280;64897;50.816;4.422;2023-04-24T02:04:19;99399.16;;;8.67;94.07
76164;BME280;64897;50.816;4.422;2023-04-24T02:07:06;99394.19;;;8.64;93.62
76164;BME280;64897;50.816;4.422;2023-04-24T02:09:56;99399.03;;;8.69;93.54
76164;BME280;64897;50.816;4.422;2023-04-24T02:12:44;99396.69;;;8.66;94.25
76164;BME280;64897;50.816;4.422;2023-04-24T02:15:31;99402.72;;;8.66;94.45
76164;BME280;64897;50.816;4.422;2023-04-24T02:18:19;99401.25;;;8.73;95.23
76164;BME280;64897;50.816;4.422;2023-04-24T02:21:07;99402.47;;;8.69;95.33
76164;BME280;64897;50.816;4.422;2023-04-24T02:23:54;99399.16;;;8.67;94.32
76164;BME280;64897;50.816;4.422;2023-04-24T02:26:41;99406.16;;;8.67;94.57
76164;BME280;64897;50.816;4.422;2023-04-24T02:29:29;99402.13;;;8.63;94.40
76164;BME280;64897;50.816;4.422;2023-04-24T02:32:17;99403.66;;;8.65;94.73
76164;BME280;64897;50.816;4.422;2023-04-24T02:35:04;99411.72;;;8.62;94.61
76164;BME280;64897;50.816;4.422;2023-04-24T02:37:51;99404.53;;;8.54;95.32
76164;BME280;64897;50.816;4.422;2023-04-24T02:40:38;99407.59;;;8.59;94.65
76164;BME280;64897;50.816;4.422;2023-04-24T02:43:25;99410.31;;;8.58;95.06
76164;BME280;64897;50.816;4.422;2023-04-24T02:46:14;99411.13;;;8.58;94.44
76164;BME280;64897;50.816;4.422;2023-04-24T02:49:00;99407.84;;;8.56;95.14
76164;BME280;64897;50.816;4.422;2023-04-24T02:51:48;99411.28;;;8.57;95.80
76164;BME280;64897;50.816;4.422;2023-04-24T02:54:35;99396.97;;;8.51;94.82
76164;BME280;64897;50.816;4.422;2023-04-24T02:57:22;99410.00;;;8.51;96.36
76164;BME280;64897;50.816;4.422;2023-04-24T03:00:10;99405.22;;;8.56;95.64
76164;BME280;64897;50.816;4.422;2023-04-24T03:03:00;99403.88;;;8.41;97.26
76164;BME280;64897;50.816;4.422;2023-04-24T03:05:47;99403.03;;;8.41;97.28
76164;BME280;64897;50.816;4.422;2023-04-24T03:08:34;99404.69;;;8.42;97.08
76164;BME280;64897;50.816;4.422;2023-04-24T03:11:21;99400.44;;;8.41;98.58
76164;BME280;64897;50.816;4.422;2023-04-24T03:14:08;99402.94;;;8.42;97.42
76164;BME280;64897;50.816;4.422;2023-04-24T03:16:57;99405.28;;;8.45;98.02
76164;BME280;64897;50.816;4.422;2023-04-24T03:19:45;99411.22;;;8.36;98.02
76164;BME280;64897;50.816;4.422;2023-04-24T03:22:32;99412.66;;;8.40;98.37
76164;BME280;64897;50.816;4.422;2023-04-24T03:25:20;99413.91;;;8.46;98.28
76164;BME280;64897;50.816;4.422;2023-04-24T03:28:07;99423.38;;;8.47;98.97
76164;BME280;64897;50.816;4.422;2023-04-24T03:31:02;99419.56;;;8.51;97.74
76164;BME280;64897;50.816;4.422;2023-04-24T03:33:52;99424.78;;;8.51;97.84
76164;BME280;64897;50.816;4.422;2023-04-24T03:36:44;99429.31;;;8.49;98.09
76164;BME280;64897;50.816;4.422;2023-04-24T03:39:33;99427.50;;;8.49;97.64
76164;BME280;64897;50.816;4.422;2023-04-24T03:42:21;99434.16;;;8.42;97.82
76164;BME280;64897;50.816;4.422;2023-04-24T03:45:11;99436.63;;;8.44;98.88
76164;BME280;64897;50.816;4.422;2023-04-24T03:48:01;99455.19;;;8.50;98.45
76164;BME280;64897;50.816;4.422;2023-04-24T03:50:49;99459.56;;;8.50;99.26
76164;BME280;64897;50.816;4.422;2023-04-24T03:53:37;99454.94;;;8.53;98.96
76164;BME280;64897;50.816;4.422;2023-04-24T03:56:24;99462.50;;;8.56;98.68
76164;BME280;64897;50.816;4.422;2023-04-24T03:59:12;99466.41;;;8.62;98.93
76164;BME280;64897;50.816;4.422;2023-04-24T04:02:01;99467.69;;;8.68;97.64
76164;BME280;64897;50.816;4.422;2023-04-24T04:04:48;99476.91;;;8.72;96.75
76164;BME280;64897;50.816;4.422;2023-04-24T04:07:35;99475.38;;;8.69;96.58
76164;BME280;64897;50.816;4.422;2023-04-24T04:10:24;99482.31;;;8.80;97.19
76164;BME280;64897;50.816;4.422;2023-04-24T04:13:11;99470.84;;;8.82;97.56
76164;BME280;64897;50.816;4.422;2023-04-24T04:15:59;99484.00;;;8.81;97.36
76164;BME280;64897;50.816;4.422;2023-04-24T04:18:46;99490.16;;;8.80;96.83
76164;BME280;64897;50.816;4.422;2023-04-24T04:21:34;99488.38;;;8.80;96.83
76164;BME280;64897;50.816;4.422;2023-04-24T04:24:41;99495.22;;;8.81;97.35
76164;BME280;64897;50.816;4.422;2023-04-24T04:27:31;99494.66;;;8.78;97.93
76164;BME280;64897;50.816;4.422;2023-04-24T04:30:27;99506.13;;;8.86;97.83
76164;BME280;64897;50.816;4.422;2023-04-24T04:33:19;99498.53;;;8.83;97.26
76164;BME280;64897;50.816;4.422;2023-04-24T04:36:06;99516.88;;;8.82;97.65
76164;BME280;64897;50.816;4.422;2023-04-24T04:38:58;99512.88;;;8.78;98.00
76164;BME280;64897;50.816;4.422;2023-04-24T04:42:06;99516.44;;;8.77;97.36
76164;BME280;64897;50.816;4.422;2023-04-24T04:45:00;99528.13;;;8.82;98.13
76164;BME280;64897;50.816;4.422;2023-04-24T04:47:58;99542.09;;;8.81;96.94
76164;BME280;64897;50.816;4.422;2023-04-24T04:50:46;99551.00;;;8.79;97.66
76164;BME280;64897;50.816;4.422;2023-04-24T04:53:33;99551.81;;;8.79;95.83
76164;BME280;64897;50.816;4.422;2023-04-24T04:56:21;99554.66;;;8.76;96.36
76164;BME280;64897;50.816;4.422;2023-04-24T04:59:08;99568.97;;;8.82;95.18
76164;BME280;64897;50.816;4.422;2023-04-24T05:01:59;99573.88;;;8.75;95.46
76164;BME280;64897;50.816;4.422;2023-04-24T05:04:46;99574.13;;;8.72;95.43
76164;BME280;64897;50.816;4.422;2023-04-24T05:07:34;99583.44;;;8.75;96.50
76164;BME280;64897;50.816;4.422;2023-04-24T05:10:21;99592.44;;;8.71;95.55
76164;BME280;64897;50.816;4.422;2023-04-24T05:13:10;99588.44;;;8.78;93.86
76164;BME280;64897;50.816;4.422;2023-04-24T05:15:58;99601.47;;;8.67;94.64
76164;BME280;64897;50.816;4.422;2023-04-24T05:18:47;99592.22;;;8.63;94.96
76164;BME280;64897;50.816;4.422;2023-04-24T05:21:38;99619.56;;;8.68;94.89
76164;BME280;64897;50.816;4.422;2023-04-24T05:24:26;99625.59;;;8.69;95.83
76164;BME280;64897;50.816;4.422;2023-04-24T05:27:49;99636.25;;;8.66;94.44
76164;BME280;64897;50.816;4.422;2023-04-24T05:30:37;99636.50;;;8.63;95.21
76164;BME280;64897;50.816;4.422;2023-04-24T05:33:26;99643.13;;;8.67;93.47
76164;BME280;64897;50.816;4.422;2023-04-24T05:36:14;99645.84;;;8.65;94.07
76164;BME280;64897;50.816;4.422;2023-04-24T05:39:01;99657.31;;;8.63;94.52
76164;BME280;64897;50.816;4.422;2023-04-24T05:41:50;99663.47;;;8.62;93.91
76164;BME280;64897;50.816;4.422;2023-04-24T05:44:37;99669.66;;;8.61;94.82
76164;BME280;64897;50.816;4.422;2023-04-24T05:47:24;99668.44;;;8.65;94.50
76164;BME280;64897;50.816;4.422;2023-04-24T05:50:13;99673.19;;;8.59;94.08
76164;BME280;64897;50.816;4.422;2023-04-24T05:53:02;99674.03;;;8.60;94.34
76164;BME280;64897;50.816;4.422;2023-04-24T05:55:53;99684.06;;;8.65;94.12
76164;BME280;64897;50.816;4.422;2023-04-24T05:58:40;99691.88;;;8.65;94.30
76164;BME280;64897;50.816;4.422;2023-04-24T06:01:28;99694.03;;;8.71;94.38
76164;BME280;64897;50.816;4.422;2023-04-24T06:04:26;99692.72;;;8.65;94.29
76164;BME280;64897;50.816;4.422;2023-04-24T06:07:12;99698.06;;;8.64;94.63
76164;BME280;64897;50.816;4.422;2023-04-24T06:10:04;99715.44;;;8.63;95.24
76164;BME280;64897;50.816;4.422;2023-04-24T06:12:58;99716.28;;;8.64;94.71
76164;BME280;64897;50.816;4.422;2023-04-24T06:15:48;99719.13;;;8.61;95.15
76164;BME280;64897;50.816;4.422;2023-04-24T06:18:40;99723.38;;;8.62;95.18
76164;BME280;64897;50.816;4.422;2023-04-24T06:21:28;99739.00;;;8.62;94.86
76164;BME280;64897;50.816;4.422;2023-04-24T06:24:15;99745.16;;;8.61;94.44
76164;BME280;64897;50.816;4.422;2023-04-24T06:27:04;99749.63;;;8.58;95.74
76164;BME280;64897;50.816;4.422;2023-04-24T06:29:52;99755.91;;;8.56;95.76
76164;BME280;64897;50.816;4.422;2023-04-24T06:32:40;99751.44;;;8.69;94.46
76164;BME280;64897;50.816;4.422;2023-04-24T06:35:27;99752.75;;;8.64;95.45
76164;BME280;64897;50.816;4.422;2023-04-24T06:38:14;99764.94;;;8.63;94.34
76164;BME280;64897;50.816;4.422;2023-04-24T06:41:01;99768.47;;;8.62;94.60
76164;BME280;64897;50.816;4.422;2023-04-24T06:43:51;99771.31;;;8.70;93.90
76164;BME280;64897;50.816;4.422;2023-04-24T06:46:39;99771.53;;;8.67;93.64
76164;BME280;64897;50.816;4.422;2023-04-24T06:49:26;99782.81;;;8.68;93.85
76164;BME280;64897;50.816;4.422;2023-04-24T06:52:13;99781.97;;;8.78;94.03
76164;BME280;64897;50.816;4.422;2023-04-24T06:55:03;99779.28;;;8.91;93.99
76164;BME280;64897;50.816;4.422;2023-04-24T06:57:52;99791.38;;;8.92;92.64
76164;BME280;64897;50.816;4.422;2023-04-24T07:00:40;99790.63;;;8.90;92.66
76164;BME280;64897;50.816;4.422;2023-04-24T07:03:27;99797.53;;;9.02;93.28
76164;BME280;64897;50.816;4.422;2023-04-24T07:06:14;99808.19;;;9.10;92.08
76164;BME280;64897;50.816;4.422;2023-04-24T07:09:02;99804.63;;;9.11;92.11
76164;BME280;64897;50.816;4.422;2023-04-24T07:11:49;99802.03;;;9.00;93.12
76164;BME280;64897;50.816;4.422;2023-04-24T07:14:36;99811.00;;;8.96;93.04
76164;BME280;64897;50.816;4.422;2023-04-24T07:17:26;99816.72;;;9.01;93.88
76164;BME280;64897;50.816;4.422;2023-04-24T07:20:13;99820.50;;;9.08;92.25
76164;BME280;64897;50.816;4.422;2023-04-24T07:23:01;99834.25;;;9.54;91.67
76164;BME280;64897;50.816;4.422;2023-04-24T07:25:48;99831.28;;;9.59;90.61
76164;BME280;64897;50.816;4.422;2023-04-24T07:28:35;99829.47;;;9.93;88.66
76164;BME280;64897;50.816;4.422;2023-04-24T07:31:22;99843.72;;;9.66;87.05
76164;BME280;64897;50.816;4.422;2023-04-24T07:34:10;99848.47;;;9.72;87.37
76164;BME280;64897;50.816;4.422;2023-04-24T07:36:57;99854.38;;;9.74;87.06
76164;BME280;64897;50.816;4.422;2023-04-24T07:39:45;99849.03;;;9.76;85.43
76164;BME280;64897;50.816;4.422;2023-04-24T07:42:32;99864.38;;;9.69;85.74
76164;BME280;64897;50.816;4.422;2023-04-24T07:45:20;99853.94;;;9.69;87.81
76164;BME280;64897;50.816;4.422;2023-04-24T07:48:08;99862.56;;;9.59;89.37
76164;BME280;64897;50.816;4.422;2023-04-24T07:50:57;99864.38;;;9.58;89.23
76164;BME280;64897;50.816;4.422;2023-04-24T07:53:44;99878.09;;;9.71;87.43
76164;BME280;64897;50.816;4.422;2023-04-24T07:56:31;99875.00;;;9.89;86.70
76164;BME280;64897;50.816;4.422;2023-04-24T07:59:18;99875.91;;;10.10;85.82
76164;BME280;64897;50.816;4.422;2023-04-24T08:02:06;99885.31;;;10.01;85.14
76164;BME280;64897;50.816;4.422;2023-04-24T08:04:52;99884.75;;;9.87;84.97
76164;BME280;64897;50.816;4.422;2023-04-24T08:07:41;99882.63;;;9.69;84.47
76164;BME280;64897;50.816;4.422;2023-04-24T08:10:29;99889.13;;;9.75;84.42
76164;BME280;64897;50.816;4.422;2023-04-24T08:13:16;99894.00;;;9.68;85.21
76164;BME280;64897;50.816;4.422;2023-04-24T08:16:03;99903.72;;;9.66;85.22
76164;BME280;64897;50.816;4.422;2023-04-24T08:18:50;99919.25;;;9.79;84.56
76164;BME280;64897;50.816;4.422;2023-04-24T08:21:37;99909.38;;;9.94;83.61
76164;BME280;64897;50.816;4.422;2023-04-24T08:24:26;99918.41;;;10.01;82.76
76164;BME280;64897;50.816;4.422;2023-04-24T08:27:13;99921.66;;;10.36;81.43
76164;BME280;64897;50.816;4.422;2023-04-24T08:30:00;99927.38;;;10.41;79.77
76164;BME280;64897;50.816;4.422;2023-04-24T08:32:48;99930.44;;;10.46;80.05
76164;BME280;64897;50.816;4.422;2023-04-24T08:35:35;99921.63;;;10.58;80.00
76164;BME280;64897;50.816;4.422;2023-04-24T08:38:22;99934.34;;;10.52;79.14
76164;BME280;64897;50.816;4.422;2023-04-24T08:41:10;99932.47;;;10.74;78.49
76164;BME280;64897;50.816;4.422;2023-04-24T08:43:58;99939.09;;;11.10;75.91
76164;BME280;64897;50.816;4.422;2023-04-24T08:46:46;99942.50;;;11.52;74.08
76164;BME280;64897;50.816;4.422;2023-04-24T08:49:34;99951.59;;;11.78;73.28
76164;BME280;64897;50.816;4.422;2023-04-24T08:52:26;99951.91;;;11.85;71.62
76164;BME280;64897;50.816;4.422;2023-04-24T08:55:14;99949.78;;;12.09;70.96
76164;BME280;64897;50.816;4.422;2023-04-24T08:58:03;99957.16;;;12.25;70.57
76164;BME280;64897;50.816;4.422;2023-04-24T09:00:50;99950.31;;;12.62;67.92
76164;BME280;64897;50.816;4.422;2023-04-24T09:03:37;99945.75;;;13.12;66.13
76164;BME280;64897;50.816;4.422;2023-04-24T09:06:25;99953.91;;;13.19;65.29
76164;BME280;64897;50.816;4.422;2023-04-24T09:09:12;99946.19;;;13.63;62.20
76164;BME280;64897;50.816;4.422;2023-04-24T09:12:00;99939.81;;;14.30;60.62
76164;BME280;64897;50.816;4.422;2023-04-24T09:14:51;99948.34;;;14.42;57.16
76164;BME280;64897;50.816;4.422;2023-04-24T09:17:38;99950.22;;;15.97;52.56
76164;BME280;64897;50.816;4.422;2023-04-24T09:20:25;99939.13;;;16.27;50.30
76164;BME280;64897;50.816;4.422;2023-04-24T09:23:18;99952.06;;;14.49;53.74
76164;BME280;64897;50.816;4.422;2023-04-24T09:26:05;99951.13;;;13.76;57.60
76164;BME280;64897;50.816;4.422;2023-04-24T09:28:54;99953.09;;;13.08;59.09
76164;BME280;64897;50.816;4.422;2023-04-24T09:31:42;99963.28;;;12.64;60.53
76164;BME280;64897;50.816;4.422;2023-04-24T09:34:30;99989.06;;;12.09;60.74
76164;BME280;64897;50.816;4.422;2023-04-24T09:37:28;99985.38;;;11.61;61.98
76164;BME280;64897;50.816;4.422;2023-04-24T09:40:17;100001.50;;;11.66;62.10
76164;BME280;64897;50.816;4.422;2023-04-24T09:43:05;99997.94;;;11.67;61.69
76164;BME280;64897;50.816;4.422;2023-04-24T09:45:57;99994.41;;;12.38;59.76
76164;BME280;64897;50.816;4.422;2023-04-24T09:48:46;99982.34;;;14.16;54.70
76164;BME280;64897;50.816;4.422;2023-04-24T09:51:35;99990.84;;;13.63;54.71
76164;BME280;64897;50.816;4.422;2023-04-24T09:54:23;100000.41;;;12.97;56.81
76164;BME280;64897;50.816;4.422;2023-04-24T09:57:11;100002.84;;;12.51;57.70
76164;BME280;64897;50.816;4.422;2023-04-24T09:59:58;100011.84;;;12.18;59.09
76164;BME280;64897;50.816;4.422;2023-04-24T10:02:45;100019.00;;;11.86;59.98
76164;BME280;64897;50.816;4.422;2023-04-24T10:05:38;100019.16;;;11.94;59.27
76164;BME280;64897;50.816;4.422;2023-04-24T10:08:25;100028.81;;;12.24;59.12
76164;BME280;64897;50.816;4.422;2023-04-24T10:11:13;100018.88;;;12.18;59.29
76164;BME280;64897;50.816;4.422;2023-04-24T10:14:00;100028.66;;;12.16;59.44
76164;BME280;64897;50.816;4.422;2023-04-24T10:16:48;100022.19;;;11.89;58.86
76164;BME280;64897;50.816;4.422;2023-04-24T10:19:36;100034.25;;;12.02;60.19
76164;BME280;64897;50.816;4.422;2023-04-24T10:22:25;100036.88;;;12.02;60.67
76164;BME280;64897;50.816;4.422;2023-04-24T10:25:16;100048.13;;;11.92;59.93
76164;BME280;64897;50.816;4.422;2023-04-24T10:28:03;100052.47;;;11.82;61.14
76164;BME280;64897;50.816;4.422;2023-04-24T10:30:53;100052.47;;;11.82;61.79
76164;BME280;64897;50.816;4.422;2023-04-24T10:33:43;100049.59;;;11.85;61.72
76164;BME280;64897;50.816;4.422;2023-04-24T10:36:32;100050.50;;;11.75;62.09
76164;BME280;64897;50.816;4.422;2023-04-24T10:39:21;100051.19;;;11.56;61.83
76164;BME280;64897;50.816;4.422;2023-04-24T10:42:15;100063.16;;;11.70;62.37
76164;BME280;64897;50.816;4.422;2023-04-24T10:45:05;100052.75;;;12.10;60.47
76164;BME280;64897;50.816;4.422;2023-04-24T10:47:56;100057.31;;;12.97;58.03
76164;BME280;64897;50.816;4.422;2023-04-24T10:50:47;100055.00;;;14.07;53.46
76164;BME280;64897;50.816;4.422;2023-04-24T10:53:35;100056.03;;;14.61;51.60
76164;BME280;64897;50.816;4.422;2023-04-24T10:56:23;100060.69;;;15.12;50.63
76164;BME280;64897;50.816;4.422;2023-04-24T10:59:11;100061.28;;;14.61;50.07
76164;BME280;64897;50.816;4.422;2023-04-24T11:02:10;100069.38;;;14.03;51.67
76164;BME280;64897;50.816;4.422;2023-04-24T11:04:57;100064.47;;;13.81;53.50
76164;BME280;64897;50.816;4.422;2023-04-24T11:08:15;100074.97;;;13.81;53.59
76164;BME280;64897;50.816;4.422;2023-04-24T11:11:07;100071.84;;;13.39;53.06
76164;BME280;64897;50.816;4.422;2023-04-24T11:14:04;100074.84;;;13.73;53.39
76164;BME280;64897;50.816;4.422;2023-04-24T11:16:53;100075.22;;;13.97;53.42
76164;BME280;64897;50.816;4.422;2023-04-24T11:19:41;100071.94;;;13.66;53.76
76164;BME280;64897;50.816;4.422;2023-04-24T11:22:30;100072.91;;;13.75;53.79
76164;BME280;64897;50.816;4.422;2023-04-24T11:25:19;100078.53;;;13.99;52.78
76164;BME280;64897;50.816;4.422;2023-04-24T11:28:08;100078.16;;;13.85;51.06
76164;BME280;64897;50.816;4.422;2023-04-24T11:31:34;100080.75;;;13.94;51.07
76164;BME280;64897;50.816;4.422;2023-04-24T11:34:21;100088.94;;;13.72;51.61
76164;BME280;64897;50.816;4.422;2023-04-24T11:37:09;100099.31;;;13.64;52.06
76164;BME280;64897;50.816;4.422;2023-04-24T11:39:58;100085.50;;;13.72;52.16
76164;BME280;64897;50.816;4.422;2023-04-24T11:42:46;100098.19;;;13.66;52.15
76164;BME280;64897;50.816;4.422;2023-04-24T11:45:33;100091.59;;;13.34;52.85
76164;BME280;64897;50.816;4.422;2023-04-24T11:48:22;100092.66;;;13.12;53.57
76164;BME280;64897;50.816;4.422;2023-04-24T11:51:09;100108.69;;;13.09;54.04
76164;BME280;64897;50.816;4.422;2023-04-24T11:53:59;100105.25;;;13.28;55.10
76164;BME280;64897;50.816;4.422;2023-04-24T11:56:48;100117.03;;;13.72;53.72
76164;BME280;64897;50.816;4.422;2023-04-24T11:59:37;100098.28;;;14.50;52.12
76164;BME280;64897;50.816;4.422;2023-04-24T12:02:25;100097.94;;;14.90;50.25
76164;BME280;64897;50.816;4.422;2023-04-24T12:05:21;100093.00;;;14.59;51.52
76164;BME280;64897;50.816;4.422;2023-04-24T12:08:08;100099.56;;;14.73;50.78
76164;BME280;64897;50.816;4.422;2023-04-24T12:10:56;100095.69;;;14.77;51.20
76164;BME280;64897;50.816;4.422;2023-04-24T12:13:45;100107.91;;;15.13;48.98
76164;BME280;64897;50.816;4.422;2023-04-24T12:16:33;100105.53;;;14.93;49.04
76164;BME280;64897;50.816;4.422;2023-04-24T12:19:21;100097.28;;;14.88;49.46
76164;BME280;64897;50.816;4.422;2023-04-24T12:22:10;100106.81;;;14.61;48.62
76164;BME280;64897;50.816;4.422;2023-04-24T12:24:58;100106.63;;;14.45;49.88
76164;BME280;64897;50.816;4.422;2023-04-24T12:27:54;100104.41;;;14.41;49.90
76164;BME280;64897;50.816;4.422;2023-04-24T12:30:43;100097.63;;;14.48;50.51
76164;BME280;64897;50.816;4.422;2023-04-24T12:33:33;100106.50;;;14.74;49.48
76164;BME280;64897;50.816;4.422;2023-04-24T12:36:22;100087.28;;;14.64;48.66
76164;BME280;64897;50.816;4.422;2023-04-24T12:39:16;100098.09;;;14.61;48.81
76164;BME280;64897;50.816;4.422;2023-04-24T12:42:04;100098.94;;;14.34;49.12
76164;BME280;64897;50.816;4.422;2023-04-24T12:44:55;100099.47;;;14.18;49.87
76164;BME280;64897;50.816;4.422;2023-04-24T12:47:43;100094.06;;;14.29;49.87
76164;BME280;64897;50.816;4.422;2023-04-24T12:50:31;100090.22;;;14.61;49.38
76164;BME280;64897;50.816;4.422;2023-04-24T12:53:17;100096.97;;;14.91;48.68
76164;BME280;64897;50.816;4.422;2023-04-24T12:56:06;100092.13;;;15.13;48.45
76164;BME280;64897;50.816;4.422;2023-04-24T12:58:53;100091.13;;;14.97;47.80
76164;BME280;64897;50.816;4.422;2023-04-24T13:01:40;100096.25;;;14.71;48.76
76164;BME280;64897;50.816;4.422;2023-04-24T13:04:27;100102.53;;;14.33;48.85
76164;BME280;64897;50.816;4.422;2023-04-24T13:07:15;100101.59;;;14.05;49.57
76164;BME280;64897;50.816;4.422;2023-04-24T13:10:02;100105.38;;;13.93;50.41
76164;BME280;64897;50.816;4.422;2023-04-24T13:12:50;100110.78;;;13.82;50.82
76164;BME280;64897;50.816;4.422;2023-04-24T13:15:38;100112.72;;;13.80;50.70
76164;BME280;64897;50.816;4.422;2023-04-24T13:18:24;100114.56;;;14.16;50.81
76164;BME280;64897;50.816;4.422;2023-04-24T13:21:11;100111.69;;;14.10;50.29
76164;BME280;64897;50.816;4.422;2023-04-24T13:23:58;100097.84;;;14.17;48.97
76164;BME280;64897;50.816;4.422;2023-04-24T13:26:45;100092.94;;;14.42;48.56
76164;BME280;64897;50.816;4.422;2023-04-24T13:29:34;100079.34;;;14.73;47.81
76164;BME280;64897;50.816;4.422;2023-04-24T13:32:21;100103.06;;;14.91;47.66
76164;BME280;64897;50.816;4.422;2023-04-24T13:35:08;100089.81;;;14.56;48.06
76164;BME280;64897;50.816;4.422;2023-04-24T13:37:57;100100.81;;;14.42;47.81
76164;BME280;64897;50.816;4.422;2023-04-24T13:40:44;100100.56;;;14.35;47.97
76164;BME280;64897;50.816;4.422;2023-04-24T13:43:31;100100.88;;;14.22;48.01
76164;BME280;64897;50.816;4.422;2023-04-24T13:46:20;100103.38;;;14.14;49.39
76164;BME280;64897;50.816;4.422;2023-04-24T13:49:10;100104.34;;;14.23;48.79
76164;BME280;64897;50.816;4.422;2023-04-24T13:51:58;100102.56;;;14.04;49.54
76164;BME280;64897;50.816;4.422;2023-04-24T13:54:45;100088.22;;;13.89;50.35
76164;BME280;64897;50.816;4.422;2023-04-24T13:57:31;100108.28;;;13.90;50.80
76164;BME280;64897;50.816;4.422;2023-04-24T14:00:19;100103.25;;;14.06;49.86
76164;BME280;64897;50.816;4.422;2023-04-24T14:03:07;100109.50;;;14.05;49.72
76164;BME280;64897;50.816;4.422;2023-04-24T14:05:54;100104.94;;;13.98;49.05
76164;BME280;64897;50.816;4.422;2023-04-24T14:08:41;100102.69;;;14.12;49.56
76164;BME280;64897;50.816;4.422;2023-04-24T14:11:28;100098.31;;;13.94;48.33
76164;BME280;64897;50.816;4.422;2023-04-24T14:14:15;100099.31;;;13.83;48.47
76164;BME280;64897;50.816;4.422;2023-04-24T14:17:02;100103.72;;;13.73;48.13
76164;BME280;64897;50.816;4.422;2023-04-24T14:19:51;100103.59;;;13.65;47.94
76164;BME280;64897;50.816;4.422;2023-04-24T14:22:42;100102.63;;;13.66;47.59
76164;BME280;64897;50.816;4.422;2023-04-24T14:25:29;100102.63;;;13.66;48.91
76164;BME280;64897;50.816;4.422;2023-04-24T14:28:16;100102.09;;;13.53;47.63
76164;BME280;64897;50.816;4.422;2023-04-24T14:31:03;100102.34;;;13.40;47.41
76164;BME280;64897;50.816;4.422;2023-04-24T14:33:50;100119.22;;;13.28;48.15
76164;BME280;64897;50.816;4.422;2023-04-24T14:36:38;100111.09;;;13.31;47.90
76164;BME280;64897;50.816;4.422;2023-04-24T14:39:26;100108.72;;;13.28;48.02
76164;BME280;64897;50.816;4.422;2023-04-24T14:42:13;100107.34;;;13.34;47.92
76164;BME280;64897;50.816;4.422;2023-04-24T14:45:00;100111.47;;;13.17;47.50
76164;BME280;64897;50.816;4.422;2023-04-24T14:47:47;100117.94;;;13.13;47.93
76164;BME280;64897;50.816;4.422;2023-04-24T14:50:35;100116.69;;;13.07;48.35
76164;BME280;64897;50.816;4.422;2023-04-24T14:53:24;100120.78;;;13.00;49.07
76164;BME280;64897;50.816;4.422;2023-04-24T14:56:11;100116.25;;;13.02;49.81